sensor_id;sensor_type;location;lat;lon;timestamp;P1;durP1;ratioP1;P2;durP2;ratioP2
12359;SDS011;6244;51.460;7.090;2022-08-16T00:00:32;1130.20;;;924.37;;
12359;SDS011;6244;51.460;7.090;2022-08-16T00:05:32;1130.03;;;929.43;;
12359;SDS011;6244;51.460;7.090;2022-08-16T00:10:29;1129.40;;;929.00;;
12359;SDS011;6244;51.460;7.090;2022-08-16T00:15:32;1127.73;;;924.50;;
12359;SDS011;6244;51.460;7.090;2022-08-16T00:20:31;1128.47;;;928.83;;
12359;SDS011;6244;51.460;7.090;2022-08-16T00:25:28;1124.90;;;912.10;;
12359;SDS011;6244;51.460;7.090;2022-08-16T00:30:25;1125.60;;;913.63;;
12359;SDS011;6244;51.460;7.090;2022-08-16T00:35:24;1125.03;;;909.47;;
12359;SDS011;6244;51.460;7.090;2022-08-16T00:40:24;1125.35;;;905.60;;
12359;SDS011;6244;51.460;7.090;2022-08-16T00:45:25;1134.47;;;913.47;;
12359;SDS011;6244;51.460;7.090;2022-08-16T00:50:31;1136.63;;;906.60;;
12359;SDS011;6244;51.460;7.090;2022-08-16T00:55:31;1135.75;;;906.95;;
12359;SDS011;6244;51.460;7.090;2022-08-16T01:00:30;1140.32;;;912.70;;
12359;SDS011;6244;51.460;7.090;2022-08-16T01:05:27;1135.47;;;907.80;;
12359;SDS011;6244;51.460;7.090;2022-08-16T01:10:26;1140.55;;;915.85;;
12359;SDS011;6244;51.460;7.090;2022-08-16T01:15:25;1137.10;;;907.25;;
12359;SDS011;6244;51.460;7.090;2022-08-16T01:20:23;1138.00;;;882.67;;
12359;SDS011;6244;51.460;7.090;2022-08-16T01:25:26;1141.07;;;888.05;;
12359;SDS011;6244;51.460;7.090;2022-08-16T01:30:26;1139.23;;;894.07;;
12359;SDS011;6244;51.460;7.090;2022-08-16T01:35:27;1140.40;;;879.03;;
12359;SDS011;6244;51.460;7.090;2022-08-16T01:40:29;1132.80;;;876.13;;
12359;SDS011;6244;51.460;7.090;2022-08-16T01:45:25;1130.68;;;886.60;;
12359;SDS011;6244;51.460;7.090;2022-08-16T01:50:22;1133.75;;;896.13;;
12359;SDS011;6244;51.460;7.090;2022-08-16T01:55:19;1133.90;;;908.35;;
12359;SDS011;6244;51.460;7.090;2022-08-16T02:00:20;1135.97;;;897.90;;
12359;SDS011;6244;51.460;7.090;2022-08-16T02:05:17;1135.68;;;888.10;;
12359;SDS011;6244;51.460;7.090;2022-08-16T02:10:13;1134.50;;;891.27;;
12359;SDS011;6244;51.460;7.090;2022-08-16T02:15:10;1130.13;;;881.57;;
12359;SDS011;6244;51.460;7.090;2022-08-16T02:20:13;1132.93;;;884.90;;
12359;SDS011;6244;51.460;7.090;2022-08-16T02:25:12;1131.50;;;883.60;;
12359;SDS011;6244;51.460;7.090;2022-08-16T02:30:11;1127.22;;;874.95;;
12359;SDS011;6244;51.460;7.090;2022-08-16T02:35:10;1132.35;;;889.55;;
12359;SDS011;6244;51.460;7.090;2022-08-16T02:40:09;1129.80;;;885.67;;
12359;SDS011;6244;51.460;7.090;2022-08-16T02:45:07;1127.90;;;879.33;;
12359;SDS011;6244;51.460;7.090;2022-08-16T02:50:05;1134.03;;;875.22;;
12359;SDS011;6244;51.460;7.090;2022-08-16T02:55:03;1137.57;;;858.43;;
12359;SDS011;6244;51.460;7.090;2022-08-16T03:00:03;1135.97;;;861.23;;
12359;SDS011;6244;51.460;7.090;2022-08-16T03:05:03;1134.22;;;860.40;;
12359;SDS011;6244;51.460;7.090;2022-08-16T03:10:01;1135.07;;;856.97;;
12359;SDS011;6244;51.460;7.090;2022-08-16T03:14:58;1135.53;;;866.07;;
12359;SDS011;6244;51.460;7.090;2022-08-16T03:19:55;1133.13;;;857.65;;
12359;SDS011;6244;51.460;7.090;2022-08-16T03:24:52;1131.28;;;868.35;;
12359;SDS011;6244;51.460;7.090;2022-08-16T03:29:48;1129.65;;;883.20;;
12359;SDS011;6244;51.460;7.090;2022-08-16T03:34:45;1127.57;;;875.55;;
12359;SDS011;6244;51.460;7.090;2022-08-16T03:39:43;1130.82;;;898.15;;
12359;SDS011;6244;51.460;7.090;2022-08-16T03:44:40;1128.13;;;888.03;;
12359;SDS011;6244;51.460;7.090;2022-08-16T03:49:37;1129.97;;;893.72;;
12359;SDS011;6244;51.460;7.090;2022-08-16T03:54:34;1131.40;;;896.55;;
12359;SDS011;6244;51.460;7.090;2022-08-16T03:59:32;1129.65;;;894.22;;
12359;SDS011;6244;51.460;7.090;2022-08-16T04:04:29;1126.53;;;884.67;;
12359;SDS011;6244;51.460;7.090;2022-08-16T04:09:26;1127.45;;;889.97;;
12359;SDS011;6244;51.460;7.090;2022-08-16T04:14:23;1126.60;;;889.03;;
12359;SDS011;6244;51.460;7.090;2022-08-16T04:19:21;1129.30;;;893.95;;
12359;SDS011;6244;51.460;7.090;2022-08-16T04:24:19;1128.40;;;891.15;;
12359;SDS011;6244;51.460;7.090;2022-08-16T04:29:15;1126.03;;;885.95;;
12359;SDS011;6244;51.460;7.090;2022-08-16T04:34:12;1127.30;;;889.70;;
12359;SDS011;6244;51.460;7.090;2022-08-16T04:39:10;1127.60;;;872.67;;
12359;SDS011;6244;51.460;7.090;2022-08-16T04:44:07;1121.97;;;876.00;;
12359;SDS011;6244;51.460;7.090;2022-08-16T04:49:04;1122.95;;;876.00;;
12359;SDS011;6244;51.460;7.090;2022-08-16T04:54:02;1123.22;;;882.78;;
12359;SDS011;6244;51.460;7.090;2022-08-16T04:59:00;1122.57;;;876.80;;
12359;SDS011;6244;51.460;7.090;2022-08-16T05:03:57;1123.13;;;880.07;;
12359;SDS011;6244;51.460;7.090;2022-08-16T05:08:53;1124.35;;;870.95;;
12359;SDS011;6244;51.460;7.090;2022-08-16T05:13:50;1125.50;;;871.07;;
12359;SDS011;6244;51.460;7.090;2022-08-16T05:18:50;1126.45;;;874.08;;
12359;SDS011;6244;51.460;7.090;2022-08-16T05:23:48;1123.27;;;862.87;;
12359;SDS011;6244;51.460;7.090;2022-08-16T05:28:46;1126.37;;;873.67;;
12359;SDS011;6244;51.460;7.090;2022-08-16T05:33:43;1129.00;;;877.60;;
12359;SDS011;6244;51.460;7.090;2022-08-16T05:38:41;1130.32;;;878.90;;
12359;SDS011;6244;51.460;7.090;2022-08-16T05:43:37;1135.10;;;870.53;;
12359;SDS011;6244;51.460;7.090;2022-08-16T05:48:34;1131.82;;;871.67;;
12359;SDS011;6244;51.460;7.090;2022-08-16T05:53:31;1126.32;;;873.55;;
12359;SDS011;6244;51.460;7.090;2022-08-16T05:58:29;1137.03;;;867.78;;
12359;SDS011;6244;51.460;7.090;2022-08-16T06:03:25;1140.90;;;879.33;;
12359;SDS011;6244;51.460;7.090;2022-08-16T06:08:22;1138.70;;;861.17;;
12359;SDS011;6244;51.460;7.090;2022-08-16T06:13:18;1139.22;;;862.28;;
12359;SDS011;6244;51.460;7.090;2022-08-16T06:18:16;1137.40;;;876.15;;
12359;SDS011;6244;51.460;7.090;2022-08-16T06:23:12;1140.67;;;864.83;;
12359;SDS011;6244;51.460;7.090;2022-08-16T06:28:09;1134.20;;;870.72;;
12359;SDS011;6244;51.460;7.090;2022-08-16T06:33:06;1141.30;;;867.22;;
12359;SDS011;6244;51.460;7.090;2022-08-16T06:38:04;1134.90;;;862.88;;
12359;SDS011;6244;51.460;7.090;2022-08-16T06:43:01;1130.63;;;879.05;;
12359;SDS011;6244;51.460;7.090;2022-08-16T06:47:58;1137.50;;;864.28;;
12359;SDS011;6244;51.460;7.090;2022-08-16T06:52:54;1129.27;;;889.80;;
12359;SDS011;6244;51.460;7.090;2022-08-16T06:57:52;1134.68;;;869.92;;
12359;SDS011;6244;51.460;7.090;2022-08-16T07:02:49;1127.65;;;881.47;;
12359;SDS011;6244;51.460;7.090;2022-08-16T07:07:47;1132.05;;;891.15;;
12359;SDS011;6244;51.460;7.090;2022-08-16T07:12:46;1137.35;;;897.67;;
12359;SDS011;6244;51.460;7.090;2022-08-16T07:17:46;1131.43;;;889.80;;
12359;SDS011;6244;51.460;7.090;2022-08-16T07:22:43;1133.82;;;907.17;;
12359;SDS011;6244;51.460;7.090;2022-08-16T07:27:40;1131.07;;;900.60;;
12359;SDS011;6244;51.460;7.090;2022-08-16T07:32:37;1135.80;;;909.88;;
12359;SDS011;6244;51.460;7.090;2022-08-16T07:37:35;1132.97;;;903.67;;
12359;SDS011;6244;51.460;7.090;2022-08-16T07:42:34;1135.18;;;912.33;;
12359;SDS011;6244;51.460;7.090;2022-08-16T07:47:31;1132.57;;;907.50;;
12359;SDS011;6244;51.460;7.090;2022-08-16T07:52:28;1132.10;;;911.83;;
12359;SDS011;6244;51.460;7.090;2022-08-16T07:57:25;1138.75;;;907.92;;
12359;SDS011;6244;51.460;7.090;2022-08-16T08:02:22;1134.97;;;905.83;;
12359;SDS011;6244;51.460;7.090;2022-08-16T08:07:19;1138.10;;;915.63;;
12359;SDS011;6244;51.460;7.090;2022-08-16T08:12:15;1134.77;;;918.37;;
12359;SDS011;6244;51.460;7.090;2022-08-16T08:17:14;1135.68;;;955.70;;
12359;SDS011;6244;51.460;7.090;2022-08-16T08:22:11;1137.35;;;960.83;;
12359;SDS011;6244;51.460;7.090;2022-08-16T08:27:08;1138.70;;;984.40;;
12359;SDS011;6244;51.460;7.090;2022-08-16T08:32:05;1128.00;;;999.90;;
12359;SDS011;6244;51.460;7.090;2022-08-16T08:37:04;1151.97;;;999.90;;
12359;SDS011;6244;51.460;7.090;2022-08-16T08:42:00;1143.15;;;999.90;;
12359;SDS011;6244;51.460;7.090;2022-08-16T08:46:57;1150.40;;;999.90;;
12359;SDS011;6244;51.460;7.090;2022-08-16T08:51:54;1163.22;;;999.90;;
12359;SDS011;6244;51.460;7.090;2022-08-16T08:56:53;1157.38;;;999.90;;
12359;SDS011;6244;51.460;7.090;2022-08-16T09:01:50;1169.18;;;999.90;;
12359;SDS011;6244;51.460;7.090;2022-08-16T09:06:48;1167.43;;;999.90;;
12359;SDS011;6244;51.460;7.090;2022-08-16T09:11:45;1167.87;;;999.90;;
12359;SDS011;6244;51.460;7.090;2022-08-16T09:16:43;1172.23;;;999.90;;
12359;SDS011;6244;51.460;7.090;2022-08-16T09:21:40;1172.05;;;999.90;;
12359;SDS011;6244;51.460;7.090;2022-08-16T09:26:36;1167.88;;;999.90;;
12359;SDS011;6244;51.460;7.090;2022-08-16T09:31:34;1157.55;;;999.90;;
12359;SDS011;6244;51.460;7.090;2022-08-16T09:36:33;1172.63;;;999.90;;
12359;SDS011;6244;51.460;7.090;2022-08-16T09:41:30;1157.43;;;999.90;;
12359;SDS011;6244;51.460;7.090;2022-08-16T09:46:27;1183.68;;;999.90;;
12359;SDS011;6244;51.460;7.090;2022-08-16T09:51:24;1178.93;;;999.90;;
12359;SDS011;6244;51.460;7.090;2022-08-16T09:56:25;1167.88;;;999.90;;
12359;SDS011;6244;51.460;7.090;2022-08-16T10:01:24;1179.03;;;999.90;;
12359;SDS011;6244;51.460;7.090;2022-08-16T10:06:21;1170.70;;;999.90;;
12359;SDS011;6244;51.460;7.090;2022-08-16T10:11:18;1163.10;;;999.90;;
12359;SDS011;6244;51.460;7.090;2022-08-16T10:16:34;1176.00;;;999.90;;
12359;SDS011;6244;51.460;7.090;2022-08-16T10:21:31;1170.10;;;999.90;;
12359;SDS011;6244;51.460;7.090;2022-08-16T10:26:28;1176.00;;;999.90;;
12359;SDS011;6244;51.460;7.090;2022-08-16T10:31:25;1173.97;;;999.90;;
12359;SDS011;6244;51.460;7.090;2022-08-16T10:36:23;1182.18;;;999.90;;
12359;SDS011;6244;51.460;7.090;2022-08-16T10:41:19;1171.72;;;999.90;;
12359;SDS011;6244;51.460;7.090;2022-08-16T10:46:17;1171.43;;;999.90;;
12359;SDS011;6244;51.460;7.090;2022-08-16T10:51:13;1183.90;;;999.90;;
12359;SDS011;6244;51.460;7.090;2022-08-16T10:56:12;1167.90;;;999.90;;
12359;SDS011;6244;51.460;7.090;2022-08-16T11:01:09;1180.13;;;999.90;;
12359;SDS011;6244;51.460;7.090;2022-08-16T11:06:06;1182.03;;;999.90;;
12359;SDS011;6244;51.460;7.090;2022-08-16T11:11:03;1180.90;;;999.90;;
12359;SDS011;6244;51.460;7.090;2022-08-16T11:16:03;1176.70;;;999.90;;
12359;SDS011;6244;51.460;7.090;2022-08-16T11:21:00;1170.67;;;999.90;;
12359;SDS011;6244;51.460;7.090;2022-08-16T11:25:57;1172.30;;;999.90;;
12359;SDS011;6244;51.460;7.090;2022-08-16T11:30:53;1167.05;;;999.90;;
12359;SDS011;6244;51.460;7.090;2022-08-16T11:35:51;1168.55;;;999.90;;
12359;SDS011;6244;51.460;7.090;2022-08-16T11:40:49;1157.70;;;999.90;;
12359;SDS011;6244;51.460;7.090;2022-08-16T11:45:51;1175.85;;;999.90;;
12359;SDS011;6244;51.460;7.090;2022-08-16T11:50:48;1183.20;;;999.90;;
12359;SDS011;6244;51.460;7.090;2022-08-16T11:55:46;1173.70;;;999.90;;
12359;SDS011;6244;51.460;7.090;2022-08-16T12:00:43;1174.70;;;999.90;;
12359;SDS011;6244;51.460;7.090;2022-08-16T12:05:41;1165.47;;;999.90;;
12359;SDS011;6244;51.460;7.090;2022-08-16T12:10:40;1166.78;;;999.90;;
12359;SDS011;6244;51.460;7.090;2022-08-16T12:15:40;1177.03;;;999.90;;
12359;SDS011;6244;51.460;7.090;2022-08-16T12:20:39;1154.50;;;999.90;;
12359;SDS011;6244;51.460;7.090;2022-08-16T12:25:38;1162.43;;;999.90;;
12359;SDS011;6244;51.460;7.090;2022-08-16T12:30:35;1157.53;;;999.90;;
12359;SDS011;6244;51.460;7.090;2022-08-16T12:35:38;1158.22;;;999.90;;
12359;SDS011;6244;51.460;7.090;2022-08-16T12:40:37;1158.65;;;999.90;;
12359;SDS011;6244;51.460;7.090;2022-08-16T12:45:40;1160.70;;;999.90;;
12359;SDS011;6244;51.460;7.090;2022-08-16T12:50:40;1158.50;;;999.90;;
12359;SDS011;6244;51.460;7.090;2022-08-16T12:55:36;1157.00;;;999.90;;
12359;SDS011;6244;51.460;7.090;2022-08-16T13:00:33;1160.10;;;999.90;;
12359;SDS011;6244;51.460;7.090;2022-08-16T13:05:31;1163.78;;;999.90;;
12359;SDS011;6244;51.460;7.090;2022-08-16T13:10:36;1157.23;;;999.90;;
12359;SDS011;6244;51.460;7.090;2022-08-16T13:15:33;1145.10;;;999.90;;
12359;SDS011;6244;51.460;7.090;2022-08-16T13:20:30;1142.43;;;999.90;;
12359;SDS011;6244;51.460;7.090;2022-08-16T13:25:27;1134.35;;;999.90;;
12359;SDS011;6244;51.460;7.090;2022-08-16T13:30:26;1148.40;;;999.90;;
12359;SDS011;6244;51.460;7.090;2022-08-16T13:35:24;1143.45;;;999.90;;
12359;SDS011;6244;51.460;7.090;2022-08-16T13:40:22;1136.15;;;999.90;;
12359;SDS011;6244;51.460;7.090;2022-08-16T13:45:18;1144.20;;;999.90;;
12359;SDS011;6244;51.460;7.090;2022-08-16T13:50:16;1142.77;;;999.90;;
12359;SDS011;6244;51.460;7.090;2022-08-16T13:55:13;1128.20;;;999.90;;
12359;SDS011;6244;51.460;7.090;2022-08-16T14:00:10;1146.78;;;999.90;;
12359;SDS011;6244;51.460;7.090;2022-08-16T14:05:08;1149.57;;;999.90;;
12359;SDS011;6244;51.460;7.090;2022-08-16T14:10:08;1146.70;;;999.90;;
12359;SDS011;6244;51.460;7.090;2022-08-16T14:15:07;1149.90;;;999.90;;
12359;SDS011;6244;51.460;7.090;2022-08-16T14:20:06;1137.17;;;999.90;;
12359;SDS011;6244;51.460;7.090;2022-08-16T14:25:04;1134.20;;;999.90;;
12359;SDS011;6244;51.460;7.090;2022-08-16T14:30:05;1135.90;;;999.90;;
12359;SDS011;6244;51.460;7.090;2022-08-16T14:35:04;1133.43;;;999.90;;
12359;SDS011;6244;51.460;7.090;2022-08-16T14:40:05;1145.50;;;999.90;;
12359;SDS011;6244;51.460;7.090;2022-08-16T14:45:06;1135.18;;;999.90;;
12359;SDS011;6244;51.460;7.090;2022-08-16T14:50:04;1137.57;;;999.90;;
12359;SDS011;6244;51.460;7.090;2022-08-16T14:55:03;1132.50;;;999.90;;
12359;SDS011;6244;51.460;7.090;2022-08-16T15:00:01;1126.63;;;999.90;;
12359;SDS011;6244;51.460;7.090;2022-08-16T15:05:00;1132.88;;;999.90;;
12359;SDS011;6244;51.460;7.090;2022-08-16T15:09:58;1133.72;;;999.90;;
12359;SDS011;6244;51.460;7.090;2022-08-16T15:14:55;1129.67;;;999.90;;
12359;SDS011;6244;51.460;7.090;2022-08-16T15:19:51;1135.93;;;999.90;;
12359;SDS011;6244;51.460;7.090;2022-08-16T15:24:50;1134.32;;;999.90;;
12359;SDS011;6244;51.460;7.090;2022-08-16T15:29:52;1139.00;;;999.90;;
12359;SDS011;6244;51.460;7.090;2022-08-16T15:34:49;1127.30;;;999.90;;
12359;SDS011;6244;51.460;7.090;2022-08-16T15:39:47;1132.97;;;999.90;;
12359;SDS011;6244;51.460;7.090;2022-08-16T15:44:45;1121.67;;;998.53;;
12359;SDS011;6244;51.460;7.090;2022-08-16T15:49:42;1136.35;;;999.90;;
12359;SDS011;6244;51.460;7.090;2022-08-16T15:54:40;1129.13;;;999.90;;
12359;SDS011;6244;51.460;7.090;2022-08-16T15:59:39;1126.15;;;999.90;;
12359;SDS011;6244;51.460;7.090;2022-08-16T16:04:37;1130.15;;;999.90;;
12359;SDS011;6244;51.460;7.090;2022-08-16T16:09:34;1122.00;;;998.80;;
12359;SDS011;6244;51.460;7.090;2022-08-16T16:14:31;1123.83;;;999.90;;
12359;SDS011;6244;51.460;7.090;2022-08-16T16:19:28;1119.90;;;996.88;;
12359;SDS011;6244;51.460;7.090;2022-08-16T16:24:26;1120.20;;;996.97;;
12359;SDS011;6244;51.460;7.090;2022-08-16T16:29:22;1113.38;;;990.05;;
12359;SDS011;6244;51.460;7.090;2022-08-16T16:34:19;1117.63;;;993.83;;
12359;SDS011;6244;51.460;7.090;2022-08-16T16:39:19;1120.50;;;997.13;;
12359;SDS011;6244;51.460;7.090;2022-08-16T16:44:17;1115.77;;;992.83;;
12359;SDS011;6244;51.460;7.090;2022-08-16T16:49:14;1115.45;;;992.25;;
12359;SDS011;6244;51.460;7.090;2022-08-16T16:54:10;1114.90;;;991.60;;
12359;SDS011;6244;51.460;7.090;2022-08-16T16:59:08;1113.63;;;990.20;;
12359;SDS011;6244;51.460;7.090;2022-08-16T17:04:07;1105.67;;;981.53;;
12359;SDS011;6244;51.460;7.090;2022-08-16T17:09:06;1121.00;;;997.93;;
12359;SDS011;6244;51.460;7.090;2022-08-16T17:14:04;1118.43;;;995.30;;
12359;SDS011;6244;51.460;7.090;2022-08-16T17:19:02;1122.60;;;999.23;;
12359;SDS011;6244;51.460;7.090;2022-08-16T17:24:03;1117.47;;;994.53;;
12359;SDS011;6244;51.460;7.090;2022-08-16T17:29:01;1109.38;;;986.47;;
12359;SDS011;6244;51.460;7.090;2022-08-16T17:33:58;1110.70;;;987.60;;
12359;SDS011;6244;51.460;7.090;2022-08-16T17:38:54;1113.18;;;989.70;;
12359;SDS011;6244;51.460;7.090;2022-08-16T17:43:52;1111.65;;;988.05;;
12359;SDS011;6244;51.460;7.090;2022-08-16T17:48:49;1118.57;;;994.47;;
12359;SDS011;6244;51.460;7.090;2022-08-16T17:53:45;1117.10;;;985.78;;
12359;SDS011;6244;51.460;7.090;2022-08-16T17:58:43;1124.25;;;990.60;;
12359;SDS011;6244;51.460;7.090;2022-08-16T18:03:41;1127.13;;;999.90;;
12359;SDS011;6244;51.460;7.090;2022-08-16T18:08:37;1123.23;;;985.87;;
12359;SDS011;6244;51.460;7.090;2022-08-16T18:13:35;1127.20;;;984.65;;
12359;SDS011;6244;51.460;7.090;2022-08-16T18:18:32;1131.63;;;991.57;;
12359;SDS011;6244;51.460;7.090;2022-08-16T18:23:30;1136.15;;;991.17;;
12359;SDS011;6244;51.460;7.090;2022-08-16T18:28:27;1132.78;;;980.85;;
12359;SDS011;6244;51.460;7.090;2022-08-16T18:33:25;1137.63;;;983.87;;
12359;SDS011;6244;51.460;7.090;2022-08-16T18:38:23;1137.33;;;990.63;;
12359;SDS011;6244;51.460;7.090;2022-08-16T18:43:21;1137.95;;;994.72;;
12359;SDS011;6244;51.460;7.090;2022-08-16T18:48:18;1130.60;;;963.05;;
12359;SDS011;6244;51.460;7.090;2022-08-16T18:53:17;1128.00;;;977.58;;
12359;SDS011;6244;51.460;7.090;2022-08-16T18:58:15;1130.53;;;972.37;;
12359;SDS011;6244;51.460;7.090;2022-08-16T19:03:14;1130.53;;;981.80;;
12359;SDS011;6244;51.460;7.090;2022-08-16T19:08:13;1129.60;;;975.42;;
12359;SDS011;6244;51.460;7.090;2022-08-16T19:13:13;1126.80;;;968.60;;
12359;SDS011;6244;51.460;7.090;2022-08-16T19:18:13;1131.57;;;950.83;;
12359;SDS011;6244;51.460;7.090;2022-08-16T19:23:10;1135.80;;;954.33;;
12359;SDS011;6244;51.460;7.090;2022-08-16T19:28:08;1130.80;;;966.07;;
12359;SDS011;6244;51.460;7.090;2022-08-16T19:33:06;1133.97;;;943.40;;
12359;SDS011;6244;51.460;7.090;2022-08-16T19:38:04;1135.90;;;952.17;;
12359;SDS011;6244;51.460;7.090;2022-08-16T19:43:06;1136.85;;;938.53;;
12359;SDS011;6244;51.460;7.090;2022-08-16T19:48:04;1130.87;;;929.43;;
12359;SDS011;6244;51.460;7.090;2022-08-16T19:53:01;1128.90;;;956.10;;
12359;SDS011;6244;51.460;7.090;2022-08-16T19:58:01;1129.95;;;938.58;;
12359;SDS011;6244;51.460;7.090;2022-08-16T20:02:59;1123.95;;;928.55;;
12359;SDS011;6244;51.460;7.090;2022-08-16T20:07:56;1123.43;;;931.88;;
12359;SDS011;6244;51.460;7.090;2022-08-16T20:12:56;1124.60;;;937.53;;
12359;SDS011;6244;51.460;7.090;2022-08-16T20:17:58;1122.87;;;931.20;;
12359;SDS011;6244;51.460;7.090;2022-08-16T20:22:57;1126.33;;;939.30;;
12359;SDS011;6244;51.460;7.090;2022-08-16T20:27:54;1128.07;;;946.28;;
12359;SDS011;6244;51.460;7.090;2022-08-16T20:32:51;1120.35;;;934.58;;
12359;SDS011;6244;51.460;7.090;2022-08-16T20:37:50;1124.63;;;940.00;;
12359;SDS011;6244;51.460;7.090;2022-08-16T20:42:56;1125.60;;;939.73;;
12359;SDS011;6244;51.460;7.090;2022-08-16T20:47:58;1125.53;;;939.42;;
12359;SDS011;6244;51.460;7.090;2022-08-16T20:52:59;1129.75;;;949.38;;
12359;SDS011;6244;51.460;7.090;2022-08-16T20:57:56;1128.47;;;944.47;;
12359;SDS011;6244;51.460;7.090;2022-08-16T21:02:53;1128.40;;;940.38;;
12359;SDS011;6244;51.460;7.090;2022-08-16T21:07:50;1130.28;;;940.65;;
12359;SDS011;6244;51.460;7.090;2022-08-16T21:12:50;1127.65;;;944.88;;
12359;SDS011;6244;51.460;7.090;2022-08-16T21:17:49;1123.70;;;931.33;;
12359;SDS011;6244;51.460;7.090;2022-08-16T21:22:50;1123.00;;;934.88;;
12359;SDS011;6244;51.460;7.090;2022-08-16T21:27:47;1127.18;;;944.63;;
12359;SDS011;6244;51.460;7.090;2022-08-16T21:32:46;1126.35;;;941.45;;
12359;SDS011;6244;51.460;7.090;2022-08-16T21:37:43;1120.37;;;933.73;;
12359;SDS011;6244;51.460;7.090;2022-08-16T21:42:40;1122.80;;;934.53;;
12359;SDS011;6244;51.460;7.090;2022-08-16T21:47:39;1124.07;;;943.72;;
12359;SDS011;6244;51.460;7.090;2022-08-16T21:52:36;1121.73;;;942.07;;
12359;SDS011;6244;51.460;7.090;2022-08-16T21:57:33;1123.57;;;947.78;;
12359;SDS011;6244;51.460;7.090;2022-08-16T22:02:29;1117.27;;;939.33;;
12359;SDS011;6244;51.460;7.090;2022-08-16T22:07:28;1120.03;;;935.35;;
12359;SDS011;6244;51.460;7.090;2022-08-16T22:12:25;1122.07;;;947.55;;
12359;SDS011;6244;51.460;7.090;2022-08-16T22:17:23;1120.22;;;945.63;;
12359;SDS011;6244;51.460;7.090;2022-08-16T22:22:19;1119.85;;;945.33;;
12359;SDS011;6244;51.460;7.090;2022-08-16T22:27:17;1123.95;;;941.45;;
12359;SDS011;6244;51.460;7.090;2022-08-16T22:32:14;1120.88;;;943.20;;
12359;SDS011;6244;51.460;7.090;2022-08-16T22:37:11;1123.57;;;942.67;;
12359;SDS011;6244;51.460;7.090;2022-08-16T22:42:07;1122.80;;;937.70;;
12359;SDS011;6244;51.460;7.090;2022-08-16T22:47:06;1123.07;;;931.40;;
12359;SDS011;6244;51.460;7.090;2022-08-16T22:52:03;1125.10;;;922.60;;
12359;SDS011;6244;51.460;7.090;2022-08-16T22:57:01;1126.90;;;920.08;;
12359;SDS011;6244;51.460;7.090;2022-08-16T23:02:01;1132.20;;;927.00;;
12359;SDS011;6244;51.460;7.090;2022-08-16T23:07:00;1133.45;;;930.25;;
12359;SDS011;6244;51.460;7.090;2022-08-16T23:11:59;1133.70;;;936.17;;
12359;SDS011;6244;51.460;7.090;2022-08-16T23:16:56;1135.03;;;918.30;;
12359;SDS011;6244;51.460;7.090;2022-08-16T23:21:53;1136.05;;;924.80;;
12359;SDS011;6244;51.460;7.090;2022-08-16T23:26:51;1133.20;;;916.47;;
12359;SDS011;6244;51.460;7.090;2022-08-16T23:31:47;1133.57;;;922.03;;
12359;SDS011;6244;51.460;7.090;2022-08-16T23:36:44;1133.73;;;916.03;;
12359;SDS011;6244;51.460;7.090;2022-08-16T23:41:40;1131.82;;;919.25;;
12359;SDS011;6244;51.460;7.090;2022-08-16T23:46:39;1135.23;;;916.90;;
12359;SDS011;6244;51.460;7.090;2022-08-16T23:51:37;1134.60;;;924.75;;
12359;SDS011;6244;51.460;7.090;2022-08-16T23:56:33;1129.47;;;915.33;;
